Tiempo atmosférico en la estación meteorológica de Arcos de Jalón, Soria (863 m.)



Fecha
DESCASC
Temp. máxima en grados centígrados (hora)
DESCASC
Temp. mínima en grados centígrados (hora)
DESCASC
Temp. media en grados centígrados
DESCASC
Racha de viento máxima en m/sg (hora)
DESCASC
Velocidad máxima media en intervalos de 10 minutos(hora)
DESCASC
Precipitaciones diarias en mm
DESCASC
Precipitaciones de 00:00 a 06:00 en mm
DESCASC
Precipitaciones de 06:00 a 12:00 en mm
DESCASC
Precipitaciones de 12:00 a 18:00 en mm
DESCASC
Precipitaciones de 18:00 a 24:00 en mm
DESCASC
16-04-2019 19.7 (17:20) 7.2 (06:50) 13.5 6.94 (00:10) 3.61 (00:10) 0 0 0 0 0
15-04-2019 23.1 (17:10) 7.6 (06:30) 15.4 18.33 (20:30) 10.83 (20:10) 0.4 0 0 0.2 0.2
14-04-2019 22 (17:20) 7.6 (00:00) 14.8 10.28 (13:50) 7.22 (13:10) 0 0 0 0 0
13-04-2019 20.7 (18:00) -0.8 (-00:0) 10 6.67 (02:30) 4.72 (02:30) 0 0 0 0 0
12-04-2019 16.8 (16:50) 1.3 (00:00) 9 11.11 (15:00) 5 (09:50) 0 0 0 0 0
11-04-2019 13.6 (18:00) 1.1 (00:00) 7.4 8.89 (17:50) 4.17 (18:30) 0 0 0 0 0
10-04-2019 11.8 (14:30) 3.7 (00:00) 7.8 11.94 (14:50) 7.78 (11:50) 1.8 0 0.2 1.6 0
09-04-2019 12.1 (15:50) 2.2 (00:00) 7.2 15 (16:20) 9.72 (16:20) 5.4 3 0 2.4 0
08-04-2019 13 (15:30) 5.5 (00:00) 9.3 10.83 (21:10) 7.78 (16:00) 6.3 0.2 0.2 0.4 5.5
07-04-2019 11.7 (16:10) 2.7 (00:00) 7.2 13.61 (10:40) 9.44 (21:20) 0.2 0.2 0 0 0
06-04-2019 9.5 (14:30) 1.6 (00:00) 5.6 17.78 (14:50) 11.94 (14:50) 1.4 0 0 0.6 0.8
05-04-2019 8.8 (16:10) 1.9 (00:00) 5.4 14.44 (04:20) 9.17 (04:20) 3.8 0 0 0.4 3.4
04-04-2019 12.8 (17:00) -2.8 (-00:0) 5 11.67 (18:30) 7.22 (17:30) 0 0 0 0 0
03-04-2019 11 (18:00) 1.6 (23:59) 6.3 13.61 (15:40) 9.17 (15:00) 0.2 0.2 0 0 0
02-04-2019 16.4 (17:50) 5.8 (00:00) 11.1 10.28 (15:30) 7.5 (15:50) 3.4 1 0 0 2.4
01-04-2019 13.1 (16:10) 5.6 (00:00) 9.4 5.28 (18:20) 3.33 (18:20) 10.6 0.2 0 10.4 0
31-03-2019 9.4 (14:20) 2.1 (00:00) 5.7 6.39 (15:50) 4.17 (16:50) 4.4 0 0 3 1.4
30-03-2019 -- (--) -- (--) -- -- (--) -- (--) -- -- 0 0 0
29-03-2019 18 (15:30) 0.3 (00:00) 9.2 9.17 (18:40) 5.28 (18:20) 0 0 0 0 0
28-03-2019 18.1 (16:50) -0.8 (-00:0) 8.7 6.67 (15:20) 3.61 (03:30) 0 0 0 0 0
27-03-2019 17.5 (15:40) -3 (-00:0) 7.3 9.44 (20:10) 5.28 (20:10) 0 0 0 0 0
26-03-2019 16.7 (16:10) -0.2 (00:00) 8.3 10.28 (19:30) 5.83 (19:30) 0 0 0 0 0
25-03-2019 16.8 (15:20) 2.6 (00:00) 9.7 9.17 (21:10) 5.56 (21:10) 0 0 0 0 0
24-03-2019 20 (15:30) 0.5 (00:00) 10.3 8.33 (14:00) 4.44 (15:50) 0 0 0 0 0
23-03-2019 18.9 (16:10) 1 (00:00) 9.9 10.28 (18:00) 5.56 (18:00) 0 0 0 0 0
22-03-2019 16.3 (15:50) -1.7 (-00:0) 7.3 8.61 (15:10) 4.72 (15:10) 0 0 0 0 0
21-03-2019 13.9 (15:50) -3 (-00:0) 5.4 6.39 (18:40) 3.61 (06:40) 0 0 0 0 0
20-03-2019 12.9 (16:40) -2.3 (-00:0) 5.3 9.72 (19:40) 5.83 (19:40) 0 0 0 0 0
19-03-2019 11.5 (14:00) 2.8 (00:00) 7.1 12.5 (15:30) 6.94 (15:30) 0 0 0 0 0

Gráficas

Temp. máximas Temp. mínimas Temp. medias Precipitaciones Rachas de viento máximas Velocidades máximas media en intervalos de 10 minutos

Datos horarios

Fecha y hora oficial Temperatura (ºC) Velocidad del viento (km/h) Dirección del viento Racha (km/h) Dirección de racha Precipitación (mm) Presión (hPa) Tendencia (hPa) Humedad (%)
2019-04-17 23:00:00 14.9 3 Sur 15 Noroeste 0 -- -- 63
2019-04-17 22:00:00 15.7 4 Norte 25 Nordeste 0 -- -- 59
2019-04-17 21:00:00 16.8 15 Nordeste 31 Nordeste 0 -- -- 57
2019-04-17 20:00:00 18.5 14 Nordeste 35 Nordeste 0 -- -- 53
2019-04-17 19:00:00 20.1 21 Nordeste 39 Nordeste 0 -- -- 48
2019-04-17 18:00:00 20.9 25 Nordeste 39 Norte 0 -- -- 46
2019-04-17 17:00:00 24.3 10 Sudeste 29 Sur 0 -- -- 27
2019-04-17 16:00:00 23.9 15 Sur 36 Sur 0 -- -- 27
2019-04-17 15:00:00 22.8 15 Sur 30 Sur 0 -- -- 33
2019-04-17 14:00:00 19.4 5 Nordeste 12 Nordeste 0 -- -- 49
2019-04-17 13:00:00 16.2 6 Nordeste 14 Este 0 -- -- 59
2019-04-17 12:00:00 13.5 6 Nordeste 12 Nordeste 0 -- -- 68
2019-04-17 11:00:00 11.5 6 Nordeste 13 Nordeste 0 -- -- 73
2019-04-17 10:00:00 10.2 2 Norte 5 Norte 0 -- -- 79
2019-04-17 09:00:00 7.6 2 Sur 4 Sur 0 -- -- 87
2019-04-17 08:00:00 6.1 3 Sur 4 Sur 0 -- -- 87
2019-04-17 07:00:00 6.1 2 Sudoeste 5 Sur 0 -- -- 85
2019-04-17 06:00:00 6.6 0 Calma 8 Noroeste 0 -- -- 85
2019-04-17 05:00:00 6.4 3 Sur 5 Sur 0 -- -- 82
2019-04-17 04:00:00 7.2 4 Sudoeste 6 Sudoeste 0 -- -- 80
2019-04-17 03:00:00 7.7 0 Calma 5 Sur 0 -- -- 77
2019-04-17 02:00:00 7.9 0 Calma 4 Sur 0 -- -- 76
2019-04-17 01:00:00 8.4 0 Calma 5 Sudoeste 0 -- -- 72
2019-04-17 00:00:00 10.2 2 Sur 6 Nordeste 0 -- -- 65
2019-04-16 23:00:00 12.9 4 Nordeste 13 Nordeste 0 -- -- 58
2019-04-16 22:00:00 14.5 9 Nordeste 19 Norte 0 -- -- 53
2019-04-16 21:00:00 16.2 10 Nordeste 18 Nordeste 0 -- -- 48
2019-04-16 20:00:00 18 10 Nordeste 22 Nordeste 0 -- -- 39
2019-04-16 19:00:00 19.1 12 Nordeste 22 Nordeste 0 -- -- 36
2019-04-16 18:00:00 19.5 12 Nordeste 23 Norte 0 -- -- 37
2019-04-16 17:00:00 19.5 12 Nordeste 23 Nordeste 0 -- -- 37
2019-04-16 16:00:00 18.6 9 Nordeste 23 Nordeste 0 -- -- 39
2019-04-16 15:00:00 18 8 Nordeste 18 Norte 0 -- -- 44
2019-04-16 14:00:00 16.6 5 Nordeste 17 Nordeste 0 -- -- 46
2019-04-16 13:00:00 16.3 5 Norte 22 Nordeste 0 -- -- 45
2019-04-16 12:00:00 14.7 4 Noroeste 10 Norte 0 -- -- 53
2019-04-16 11:00:00 13.1 4 Sudeste 10 Nordeste 0 -- -- 63
2019-04-16 10:00:00 10.7 3 Sudoeste 14 Oeste 0 -- -- 73
2019-04-16 09:00:00 9 8 Sudoeste 16 Sudoeste 0 -- -- 79
2019-04-16 08:00:00 7.5 10 Oeste 13 Oeste 0 -- -- 82
2019-04-16 07:00:00 7.2 5 Oeste 9 Sudoeste 0 -- -- 82
2019-04-16 06:00:00 7.8 7 Sudoeste 13 Sudoeste 0 -- -- 79
2019-04-16 05:00:00 7.8 8 Oeste 11 Oeste 0 -- -- 78
2019-04-16 04:00:00 8 3 Sudoeste 7 Norte 0 -- -- 75
2019-04-16 03:00:00 7.6 3 Norte 9 Oeste 0 -- -- 74
2019-04-16 02:00:00 8.7 5 Sudoeste 10 Oeste 0 -- -- 71
2019-04-16 01:00:00 10.1 4 Sudoeste 25 Sudoeste 0 -- -- 66
2019-04-16 00:00:00 11.5 16 Sudoeste 39 Sudoeste 0 -- -- 63
2019-04-15 23:00:00 12.1 16 Sudoeste 38 Oeste 0 -- -- 60
2019-04-15 22:00:00 13.1 23 Oeste 49 Oeste 0 -- -- 63
2019-04-15 21:00:00 15.1 30 Oeste 66 Sudoeste 0 -- -- 62
2019-04-15 20:00:00 20.1 34 Sudoeste 59 Sudoeste 0 -- -- 36
2019-04-15 19:00:00 20.8 32 Sudoeste 49 Sudoeste 0.2 -- -- 40
2019-04-15 18:00:00 21 36 Sur 53 Sur 0.2 -- -- 52
2019-04-15 17:00:00 22.8 31 Sur 47 Sudoeste 0 -- -- 40
2019-04-15 16:00:00 21.5 23 Sur 50 Sur 0 -- -- 46
2019-04-15 15:00:00 20.1 28 Sur 44 Sur 0 -- -- 51
2019-04-15 14:00:00 20.6 20 Sur 47 Sur 0 -- -- 49
2019-04-15 13:00:00 20.2 22 Sur 36 Sur 0 -- -- 51
2019-04-15 12:00:00 18 9 Sudeste 25 Sur 0 -- -- 62
2019-04-15 11:00:00 14 8 Nordeste 11 Nordeste 0 -- -- 70
2019-04-15 10:00:00 13.1 4 Nordeste 8 Nordeste 0 -- -- 74
2019-04-15 09:00:00 10.3 2 Sudoeste 4 Sudoeste 0 -- -- 81
2019-04-15 08:00:00 8 2 Sudoeste 5 Oeste 0 -- -- 86
2019-04-15 07:00:00 7.7 3 Noroeste 6 Sudoeste 0 -- -- 86
2019-04-15 06:00:00 8 0 Calma 5 Sudoeste 0 -- -- 83
2019-04-15 05:00:00 8.9 3 Noroeste 8 Oeste 0 -- -- 81
2019-04-15 04:00:00 9.3 5 Sudoeste 13 Sudoeste 0 -- -- 80
2019-04-15 03:00:00 9.4 9 Sudoeste 22 Oeste 0 -- -- 79
2019-04-15 02:00:00 10.6 12 Sudoeste 19 Oeste 0 -- -- 75
2019-04-15 01:00:00 10.8 8 Sudoeste 14 Oeste 0 -- -- 74
2019-04-15 00:00:00 12.2 11 Sudoeste 16 Sudoeste 0 -- -- 69
2019-04-14 23:00:00 12.8 5 Oeste 16 Nordeste 0 -- -- 70
2019-04-14 22:00:00 14 6 Sudoeste 9 Oeste 0 -- -- 64
2019-04-14 21:00:00 16.4 6 Oeste 14 Oeste 0 -- -- 57
2019-04-14 20:00:00 19.1 11 Oeste 22 Oeste 0 -- -- 49
2019-04-14 19:00:00 20.6 10 Oeste 23 Sudoeste 0 -- -- 45
2019-04-14 18:00:00 21.6 14 Oeste 31 Oeste 0 -- -- 45
2019-04-14 17:00:00 21.8 18 Oeste 32 Sudoeste 0 -- -- 45
2019-04-14 16:00:00 21.7 19 Sudoeste 33 Oeste 0 -- -- 46
2019-04-14 15:00:00 20.4 18 Sudoeste 36 Sudoeste 0 -- -- 47
2019-04-14 14:00:00 19.3 23 Sudoeste 37 Sudoeste 0 -- -- 52
2019-04-14 13:00:00 18.4 24 Sudoeste 37 Sudoeste 0 -- -- 53
2019-04-14 12:00:00 18 22 Sudoeste 35 Sudoeste 0 -- -- 55
2019-04-14 11:00:00 16.2 15 Sudoeste 23 Sudoeste 0 -- -- 60
2019-04-14 10:00:00 14.4 15 Sudoeste 25 Sudoeste 0 -- -- 67
2019-04-14 09:00:00 11.5 6 Sur 14 Sudoeste 0 -- -- 72
2019-04-14 08:00:00 10 9 Sudoeste 12 Oeste 0 -- -- 65
2019-04-14 07:00:00 8.7 9 Oeste 16 Oeste 0 -- -- 65
2019-04-14 06:00:00 8.7 10 Oeste 17 Oeste 0 -- -- 57
2019-04-14 05:00:00 8.2 15 Oeste 19 Oeste 0 -- -- 52
2019-04-14 04:00:00 7.6 9 Sudoeste 17 Sudoeste 0 -- -- 51
2019-04-14 03:00:00 8.1 13 Sudoeste 19 Sudoeste 0 -- -- 48
2019-04-14 02:00:00 9.2 12 Sudoeste 20 Sudoeste 0 -- -- 43
2019-04-14 01:00:00 9.4 16 Oeste 21 Oeste 0 -- -- 41
2019-04-14 00:00:00 10.6 15 Sudoeste 20 Oeste 0 -- -- 36
2019-04-13 23:00:00 11.3 13 Sudoeste 20 Sudoeste 0 -- -- 34
2019-04-13 22:00:00 11.7 11 Sudoeste 16 Sudoeste 0 -- -- 30
2019-04-13 21:00:00 13.9 11 Sudoeste 18 Oeste 0 -- -- 27
2019-04-13 20:00:00 17.4 10 Noroeste 21 Oeste 0 -- -- 16
2019-04-13 19:00:00 19.1 9 Sudoeste 24 Sudoeste 0 -- -- 16
2019-04-13 18:00:00 20.7 8 Oeste 23 Oeste 0 -- -- 13
2019-04-13 17:00:00 19.9 4 Oeste 17 Norte 0 -- -- 13
2019-04-13 16:00:00 19.8 6 Sudoeste 20 Sudoeste 0 -- -- 15
2019-04-13 15:00:00 18.8 10 Oeste 21 Noroeste 0 -- -- 19
2019-04-13 14:00:00 17.9 6 Noroeste 20 Noroeste 0 -- -- 19
2019-04-13 13:00:00 16.3 6 Norte 20 Oeste 0 -- -- 20
2019-04-13 12:00:00 15.1 10 Noroeste 19 Oeste 0 -- -- 22
2019-04-13 11:00:00 12.8 4 Nordeste 6 Nordeste 0 -- -- 36
2019-04-13 10:00:00 9.1 3 Nordeste 7 Norte 0 -- -- 47
2019-04-13 09:00:00 4.4 4 Oeste 18 Sudoeste 0 -- -- 64
2019-04-13 08:00:00 1 11 Oeste 15 Sudoeste 0 -- -- 72
2019-04-13 07:00:00 -0.3 0 Calma 13 Sudoeste 0 -- -- 73
2019-04-13 06:00:00 1 6 Sudoeste 15 Sudoeste 0 -- -- 72
2019-04-13 05:00:00 2.5 9 Sudoeste 16 Sudoeste 0 -- -- 68
2019-04-13 04:00:00 2.4 9 Sudoeste 16 Sudoeste 0 -- -- 71
2019-04-13 03:00:00 3 12 Sudoeste 24 Sudoeste 0 -- -- 69
2019-04-13 02:00:00 3 9 Sudoeste 13 Sudoeste 0 -- -- 66
2019-04-13 01:00:00 4 8 Sudoeste 11 Oeste 0 -- -- 66
2019-04-13 00:00:00 5.4 7 Oeste 14 Oeste 0 -- -- 63
2019-04-12 23:00:00 5.8 6 Sudoeste 14 Sudoeste 0 -- -- 62
2019-04-12 22:00:00 8.8 2 Sudoeste 8 Noroeste 0 -- -- 53
2019-04-12 21:00:00 11.5 3 Noroeste 15 Norte 0 -- -- 46
2019-04-12 20:00:00 14.2 10 Nordeste 19 Nordeste 0 -- -- 35
2019-04-12 19:00:00 15 12 Norte 24 Noroeste 0 -- -- 33
2019-04-12 18:00:00 16.3 9 Norte 27 Norte 0 -- -- 26
2019-04-12 17:00:00 16.5 14 Oeste 31 Oeste 0 -- -- 31
2019-04-12 16:00:00 15.9 8 Noroeste 29 Oeste 0 -- -- 31
2019-04-12 15:00:00 14.7 15 Oeste 40 Noroeste 0 -- -- 41
2019-04-12 14:00:00 13.4 8 Oeste 21 Oeste 0 -- -- 45
2019-04-12 13:00:00 11.8 7 Noroeste 33 Oeste 0 -- -- 49
2019-04-12 12:00:00 10.3 12 Oeste 26 Noroeste 0 -- -- 53
2019-04-12 11:00:00 9.3 9 Noroeste 26 Noroeste 0 -- -- 57
2019-04-12 10:00:00 7.3 12 Oeste 31 Oeste 0 -- -- 64
2019-04-12 09:00:00 4.1 5 Norte 14 Oeste 0 -- -- 81
2019-04-12 08:00:00 1.3 3 Sudoeste 10 Sudoeste 0 -- -- 84
2019-04-12 07:00:00 1.3 2 Oeste 12 Sur 0 -- -- 84
2019-04-12 06:00:00 2.4 4 Sudoeste 10 Oeste 0 -- -- 82
2019-04-12 05:00:00 1.9 2 Sudoeste 12 Sudeste 0 -- -- 81
2019-04-12 04:00:00 2.2 0 Calma 7 Sudeste 0 -- -- 79
2019-04-12 03:00:00 4.6 4 Sudoeste 21 Noroeste 0 -- -- 71
2019-04-12 02:00:00 5.4 8 Noroeste 29 Noroeste 0 -- -- 68
2019-04-12 01:00:00 4.8 3 Noroeste 10 Oeste 0 -- -- 73
2019-04-12 00:00:00 5.8 4 Noroeste 20 Noroeste 0 -- -- 71
2019-04-11 23:00:00 6.5 6 Noroeste 11 Noroeste 0 -- -- 71
2019-04-11 22:00:00 7.6 5 Noroeste 19 Norte 0 -- -- 66
2019-04-11 21:00:00 8.8 6 Noroeste 25 Noroeste 0 -- -- 61
2019-04-11 20:00:00 10.1 12 Noroeste 27 Noroeste 0 -- -- 55
2019-04-11 19:00:00 11.5 11 Noroeste 27 Noroeste 0 -- -- 51
2019-04-11 18:00:00 13.6 15 Noroeste 32 Oeste 0 -- -- 46
2019-04-11 17:00:00 12.8 10 Noroeste 26 Noroeste 0 -- -- 48
2019-04-11 16:00:00 11.9 11 Noroeste 26 Noroeste 0 -- -- 49
2019-04-11 15:00:00 11.8 9 Noroeste 26 Norte 0 -- -- 48
2019-04-11 14:00:00 11.6 12 Noroeste 31 Oeste 0 -- -- 48
2019-04-11 13:00:00 10.8 9 Norte 24 Oeste 0 -- -- 53
2019-04-11 12:00:00 9.8 12 Oeste 25 Oeste 0 -- -- 58
2019-04-11 11:00:00 8.3 5 Oeste 19 Oeste 0 -- -- 66
2019-04-11 10:00:00 5.6 3 Sur 9 Oeste 0 -- -- 81
2019-04-11 09:00:00 1.8 5 Sudoeste 17 Oeste 0 -- -- 88
2019-04-11 08:00:00 1.2 12 Oeste 17 Sudoeste 0 -- -- 88
2019-04-11 07:00:00 1.6 6 Oeste 12 Oeste 0 -- -- 88
2019-04-11 06:00:00 2.1 3 Sudoeste 10 Sudoeste 0 -- -- 89
2019-04-11 05:00:00 1.6 3 Sudoeste 7 Sudoeste 0 -- -- 91
2019-04-11 04:00:00 1.1 4 Sudoeste 8 Sudoeste 0 -- -- 90
2019-04-11 03:00:00 1.8 5 Sudoeste 8 Sudoeste 0 -- -- 87
2019-04-11 02:00:00 2.6 4 Sudoeste 7 Sur 0 -- -- 88
2019-04-11 01:00:00 2.7 0 Calma 4 Nordeste 0 -- -- 85
2019-04-11 00:00:00 3.7 0 Calma 5 Oeste 0 -- -- 81
2019-04-10 23:00:00 5.6 0 Calma 14 Oeste 0 -- -- 74
2019-04-10 22:00:00 7.1 5 Oeste 17 Noroeste 0 -- -- 71
2019-04-10 21:00:00 7.9 8 Noroeste 22 Oeste 0 -- -- 69
2019-04-10 20:00:00 8.3 12 Oeste 26 Oeste 0 -- -- 68
2019-04-10 19:00:00 9.9 12 Sudoeste 26 Oeste 0 -- -- 67
2019-04-10 18:00:00 9.3 19 Sudoeste 28 Sudoeste 0 -- -- 71
2019-04-10 17:00:00 8.2 6 Sur 12 Este 0.2 -- -- 78
2019-04-10 16:00:00 7.2 9 Sur 23 Norte 1 -- -- 82
2019-04-10 15:00:00 7.5 22 Noroeste 43 Norte 0.4 -- -- 67
2019-04-10 14:00:00 10.3 15 Oeste 38 Oeste 0 -- -- 58
2019-04-10 13:00:00 8.9 15 Oeste 33 Oeste 0 -- -- 69
2019-04-10 12:00:00 7.2 23 Oeste 41 Oeste 0 -- -- 74
2019-04-10 11:00:00 6.7 21 Sudoeste 32 Sudoeste 0 -- -- 76
2019-04-10 10:00:00 5.3 15 Sudoeste 28 Sudoeste 0 -- -- 82
2019-04-10 09:00:00 5.1 14 Sudoeste 27 Sudoeste 0 -- -- 85
2019-04-10 08:00:00 4.6 16 Sudoeste 27 Sudoeste 0 -- -- 87
2019-04-10 07:00:00 4.8 14 Sudoeste 23 Sudoeste 0.2 -- -- 87
2019-04-10 06:00:00 5.4 14 Sudoeste 22 Sudoeste 0 -- -- 87
2019-04-10 05:00:00 4.9 10 Sudoeste 21 Sudoeste 0 -- -- 87
2019-04-10 04:00:00 5.2 13 Sudoeste 20 Sudoeste 0 -- -- 88
2019-04-10 03:00:00 4.2 0 Calma 8 Sudoeste 0 -- -- 90
2019-04-10 02:00:00 4.1 0 Calma 13 Noroeste 0 -- -- 88
2019-04-10 01:00:00 4.8 10 Noroeste 22 Oeste 0 -- -- 84
2019-04-10 00:00:00 4.9 9 Sudoeste 15 Sudoeste 0 -- -- 85
2019-04-09 23:00:00 5.6 14 Sudoeste 38 Sudoeste 0 -- -- 82
2019-04-09 22:00:00 5.5 10 Sudoeste 15 Sudoeste 0 -- -- 81
2019-04-09 21:00:00 6.9 7 Sudoeste 19 Sudoeste 0 -- -- 78
2019-04-09 20:00:00 7.4 9 Sudoeste 24 Sudoeste 0 -- -- 79
2019-04-09 19:00:00 6.7 18 Sudoeste 31 Oeste 0 -- -- 82
2019-04-09 18:00:00 6 9 Sur 34 Sudoeste 0.6 -- -- 88
2019-04-09 17:00:00 5.5 28 Sudoeste 54 Oeste 1.8 -- -- 87
2019-04-09 16:00:00 12.1 20 Sur 39 Sur 0 -- -- 57
2019-04-09 15:00:00 10.5 22 Sudoeste 40 Sudoeste 0 -- -- 62
2019-04-09 14:00:00 10.3 28 Sudoeste 44 Sudoeste 0 -- -- 63
2019-04-09 13:00:00 10.1 29 Sudoeste 40 Sur 0 -- -- 66
2019-04-09 12:00:00 9.2 24 Sur 36 Sudoeste 0 -- -- 70
2019-04-09 11:00:00 7.5 21 Sudoeste 34 Sudoeste 0 -- -- 81
2019-04-09 10:00:00 5.3 14 Sudoeste 24 Sudoeste 0 -- -- 89
2019-04-09 09:00:00 4.3 16 Sudoeste 23 Sudoeste 0 -- -- 92
2019-04-09 08:00:00 2.4 9 Sudoeste 17 Sudoeste 0 -- -- 92
2019-04-09 07:00:00 2.4 10 Sudoeste 15 Sudoeste 0 -- -- 92
2019-04-09 06:00:00 2.4 11 Oeste 14 Sudoeste 0 -- -- 91
2019-04-09 05:00:00 3.3 6 Oeste 19 Oeste 0 -- -- 89
2019-04-09 04:00:00 4.1 10 Sudoeste 14 Sudoeste 0 -- -- 89
2019-04-09 03:00:00 5.1 7 Sudoeste 13 Sudoeste 0 -- -- 88
2019-04-09 02:00:00 5.3 7 Sudoeste 17 Sur 1 -- -- 90
2019-04-09 01:00:00 5 12 Sudoeste 40 Sudoeste 2 -- -- 88
2019-04-09 00:00:00 5.6 4 Sudoeste 15 Sudeste 0.2 -- -- 89
2019-04-08 23:00:00 5.5 13 Sur 32 Sur 1.4 -- -- 87
2019-04-08 22:00:00 7 17 Sur 39 Sudoeste -- -- -- 83
2019-04-08 21:00:00 10.3 8 Sudoeste 15 Oeste 0 -- -- 72
2019-04-08 20:00:00 11.5 9 Sur 23 Sudoeste 0 -- -- 63
2019-04-08 19:00:00 11.8 15 Sur 25 Sur 0 -- -- 64
2019-04-08 18:00:00 11.7 8 Sudoeste 21 Oeste 0 -- -- 69
2019-04-08 17:00:00 11.1 15 Sudoeste 35 Sudoeste 0.4 -- -- 75
2019-04-08 16:00:00 12 28 Sudoeste 37 Sudoeste 0 -- -- 67
2019-04-08 15:00:00 11.4 19 Sudoeste 33 Sudoeste 0 -- -- 69
2019-04-08 14:00:00 11.1 17 Oeste 36 Sudoeste 0 -- -- 71
2019-04-08 13:00:00 11.3 21 Sudoeste 36 Sudoeste 0 -- -- 73
2019-04-08 12:00:00 11.5 25 Sudoeste 37 Sudoeste 0 -- -- 74
2019-04-08 11:00:00 9.9 19 Sudoeste 28 Sudoeste 0 -- -- 82
2019-04-08 10:00:00 8.4 12 Sudoeste 24 Sur 0.2 -- -- 85
2019-04-08 09:00:00 7.4 7 Sudoeste 32 Sudoeste 0 -- -- 87
2019-04-08 08:00:00 7.1 15 Sudoeste 26 Sudoeste 0 -- -- 86
2019-04-08 07:00:00 6.8 18 Sudoeste 33 Sudoeste 0 -- -- 87
2019-04-08 06:00:00 6.4 15 Sudoeste 30 Sur 0 -- -- 86
2019-04-08 05:00:00 6.4 19 Sudoeste 34 Sudoeste 0 -- -- 86
2019-04-08 04:00:00 6.2 22 Sur 34 Sudoeste 0 -- -- 86
2019-04-08 03:00:00 6.3 19 Sur 32 Sur 0 -- -- 86
2019-04-08 02:00:00 6.1 14 Sudoeste 26 Sudoeste 0.2 -- -- 85
2019-04-08 01:00:00 5.9 12 Sudoeste 20 Sur 0 -- -- 85
2019-04-08 00:00:00 6 12 Sudoeste 28 Sudoeste 0 -- -- 83
2019-04-07 23:00:00 6.9 18 Sudoeste 39 Sudoeste 0 -- -- 72
2019-04-07 22:00:00 7.5 26 Sudoeste 44 Sudoeste 0 -- -- 67
2019-04-07 21:00:00 9.3 18 Sudoeste 32 Sudoeste 0 -- -- 49
2019-04-07 20:00:00 10.2 17 Sudoeste 28 Sur 0 -- -- 45
2019-04-07 19:00:00 10.9 23 Sudoeste 34 Sudoeste 0 -- -- 44
2019-04-07 18:00:00 11.3 22 Sudoeste 33 Sudoeste 0 -- -- 42
2019-04-07 17:00:00 11.4 21 Sudoeste 35 Sudoeste 0 -- -- 43
2019-04-07 16:00:00 11.5 18 Sudoeste 37 Oeste 0 -- -- 46
2019-04-07 15:00:00 9.8 23 Sudoeste 40 Oeste 0 -- -- 52
2019-04-07 14:00:00 8.3 21 Oeste 40 Sudoeste 0 -- -- 59
2019-04-07 13:00:00 7.6 22 Oeste 44 Oeste 0 -- -- 62
2019-04-07 12:00:00 7 28 Oeste 45 Sudoeste 0 -- -- 66
2019-04-07 11:00:00 5.6 28 Oeste 49 Oeste 0 -- -- 73
2019-04-07 10:00:00 4 23 Oeste 46 Sudoeste 0 -- -- 77
2019-04-07 09:00:00 2.9 9 Sudoeste 38 Oeste 0 -- -- 82
2019-04-07 08:00:00 3.2 20 Sudoeste 27 Sudoeste 0 -- -- 84
2019-04-07 07:00:00 2.7 15 Sudoeste 26 Sudoeste 0 -- -- 84
2019-04-07 06:00:00 3.3 17 Sudoeste 24 Sudoeste 0.2 -- -- 84
2019-04-07 05:00:00 3.4 15 Sudoeste 21 Sudoeste 0 -- -- 83
2019-04-07 04:00:00 3.5 10 Sudoeste 20 Sudoeste 0 -- -- 83
2019-04-07 03:00:00 3.4 10 Sudoeste 25 Sur 0 -- -- 85
2019-04-07 02:00:00 3.7 13 Sudoeste 27 Sudoeste 0 -- -- 83
2019-04-07 01:00:00 3.9 14 Sudoeste 28 Sudoeste 0 -- -- 85
2019-04-07 00:00:00 3.5 14 Sudoeste 40 Sudoeste 0.4 -- -- 88
2019-04-06 23:00:00 4.2 18 Sudoeste 35 Sudoeste 0 -- -- 84
2019-04-06 22:00:00 4.5 11 Sudoeste 27 Sudoeste 0 -- -- 84
2019-04-06 21:00:00 4.5 4 Sur 29 Sudoeste 0.2 -- -- 84
2019-04-06 20:00:00 5.5 24 Sudoeste 36 Sur 0.2 -- -- 80
2019-04-06 19:00:00 7.1 14 Sur 37 Sur 0 -- -- 70
2019-04-06 18:00:00 6.8 28 Sudoeste 49 Sur 0 -- -- 70
2019-04-06 17:00:00 8.1 28 Sur 46 Sudoeste 0 -- -- 66
2019-04-06 16:00:00 7.8 22 Sur 44 Sur 0.2 -- -- 70
2019-04-06 15:00:00 5.1 27 Sudoeste 64 Sudoeste 0.2 -- -- 81
2019-04-06 14:00:00 7.9 24 Sudoeste 46 Sudoeste 0 -- -- 67
2019-04-06 13:00:00 6.7 25 Sur 44 Sur 0.2 -- -- 68
2019-04-06 12:00:00 6 24 Sur 44 Sur 0 -- -- 69
2019-04-06 11:00:00 5.2 32 Sur 44 Sur 0 -- -- 74
2019-04-06 10:00:00 4.3 22 Sur 36 Sudoeste 0 -- -- 77
2019-04-06 09:00:00 3.1 25 Sudoeste 35 Sudoeste 0 -- -- 82
2019-04-06 08:00:00 1.9 17 Sudoeste 28 Sudoeste 0 -- -- 85
2019-04-06 07:00:00 2.2 9 Sudoeste 25 Sur 0 -- -- 85
2019-04-06 06:00:00 2.8 16 Sudoeste 21 Sudoeste 0 -- -- 86
2019-04-06 05:00:00 2.6 9 Sudoeste 22 Sudoeste 0 -- -- 87
2019-04-06 04:00:00 2.5 16 Sudoeste 23 Sur 0 -- -- 88
2019-04-06 03:00:00 2.3 14 Sudoeste 21 Oeste 0 -- -- 88
2019-04-06 02:00:00 1.9 11 Oeste 18 Oeste 0 -- -- 88
2019-04-06 01:00:00 2.4 12 Sudoeste 30 Sudoeste 0 -- -- 86
2019-04-06 00:00:00 2.6 21 Sudoeste 30 Sudoeste 0 -- -- 88
2019-04-05 23:00:00 2.6 15 Sudoeste 18 Sudoeste 0 -- -- 90
2019-04-05 22:00:00 2.3 10 Sur 15 Sudoeste 0.2 -- -- 92
2019-04-05 21:00:00 2 6 Sudoeste 12 Sudoeste 1.8 -- -- 90
2019-04-05 20:00:00 2.9 2 Sudeste 19 Sudoeste 1.4 -- -- 88
2019-04-05 19:00:00 4.2 15 Sudoeste 33 Sudoeste 0 -- -- 84
2019-04-05 18:00:00 5.4 28 Sudoeste 39 Sudoeste 0 -- -- 75
2019-04-05 17:00:00 7.9 15 Sur 31 Sur 0 -- -- 69
2019-04-05 16:00:00 8.3 11 Sur 24 Sur 0 -- -- 75
2019-04-05 15:00:00 5.7 6 Sudeste 23 Sur 0.2 -- -- 86
2019-04-05 14:00:00 5.6 15 Sur 50 Sur 0.2 -- -- 83
2019-04-05 13:00:00 7.3 27 Sur 44 Sur 0 -- -- 67
2019-04-05 12:00:00 7.2 25 Sur 48 Sur 0 -- -- 72
2019-04-05 11:00:00 7.7 21 Sur 39 Sur 0 -- -- 69
2019-04-05 10:00:00 5.7 19 Sur 39 Sur 0 -- -- 78
2019-04-05 09:00:00 4.6 16 Sur 33 Sudoeste 0 -- -- 83
2019-04-05 08:00:00 4.4 19 Sudoeste 33 Sur 0 -- -- 81
2019-04-05 07:00:00 4.3 13 Sur 29 Sur 0 -- -- 80
2019-04-05 06:00:00 4.2 16 Sur 33 Sur 0 -- -- 78
2019-04-05 05:00:00 4.8 25 Sur 52 Sur 0 -- -- 75
2019-04-05 04:00:00 7.1 27 Sur 42 Sur 0 -- -- 53
2019-04-05 03:00:00 6.3 9 Sur 15 Sur 0 -- -- 45
2019-04-05 02:00:00 5 4 Sudoeste 10 Sudoeste 0 -- -- 52
2019-04-05 01:00:00 5.4 5 Sudoeste 12 Oeste 0 -- -- 48
2019-04-05 00:00:00 5 9 Oeste 14 Oeste 0 -- -- 49
2019-04-04 23:00:00 5.2 6 Oeste 9 Oeste 0 -- -- 50
2019-04-04 22:00:00 6.4 2 Sudoeste 8 Sudoeste 0 -- -- 45
2019-04-04 21:00:00 8.7 8 Sudoeste 23 Sudoeste 0 -- -- 37
2019-04-04 20:00:00 10.1 18 Sudoeste 38 Sudoeste 0 -- -- 31
2019-04-04 19:00:00 11.4 25 Sudoeste 42 Sur 0 -- -- 28
2019-04-04 18:00:00 11.6 22 Sur 41 Sudoeste 0 -- -- 30
2019-04-04 17:00:00 12.8 16 Sur 36 Sur 0 -- -- 28
2019-04-04 16:00:00 12 16 Sur 37 Sudoeste 0 -- -- 29
2019-04-04 15:00:00 11.1 16 Sudoeste 32 Sur 0 -- -- 34
2019-04-04 14:00:00 9.7 15 Sudoeste 30 Sudoeste 0 -- -- 36
2019-04-04 13:00:00 8 15 Sudoeste 28 Sudoeste 0 -- -- 41
2019-04-04 12:00:00 6.6 22 Sudoeste 32 Sudoeste 0 -- -- 51
2019-04-04 11:00:00 4.7 19 Sudoeste 31 Sudoeste 0 -- -- 58
2019-04-04 10:00:00 2.6 18 Sudoeste 28 Sudoeste 0 -- -- 67
2019-04-04 09:00:00 -0.6 10 Oeste 13 Sudoeste 0 -- -- 80
2019-04-04 08:00:00 -2.6 6 Sudoeste 11 Sudoeste 0 -- -- 82
2019-04-04 07:00:00 -2.6 3 Sudoeste 12 Sudoeste 0 -- -- 82
2019-04-04 06:00:00 -2.2 8 Sudoeste 12 Sudoeste 0 -- -- 84
2019-04-04 05:00:00 -1.9 10 Sudoeste 14 Sudoeste 0 -- -- 83
2019-04-04 04:00:00 -1.3 8 Oeste 14 Sudoeste 0 -- -- 82
2019-04-04 03:00:00 -0.9 6 Sudoeste 9 Sudoeste 0 -- -- 85
2019-04-04 02:00:00 -1 5 Sudoeste 10 Sudoeste 0 -- -- 88
2019-04-04 01:00:00 0 5 Sudoeste 10 Sudoeste 0 -- -- 86
2019-04-04 00:00:00 1.6 0 Calma 5 Este 0 -- -- 83
2019-04-03 23:00:00 2.7 3 Nordeste 11 Nordeste 0 -- -- 82
2019-04-03 22:00:00 4.2 3 Este 17 Noroeste 0 -- -- 73
2019-04-03 21:00:00 5.2 15 Oeste 40 Oeste 0 -- -- 62
2019-04-03 20:00:00 7.9 13 Oeste 35 Oeste 0 -- -- 49
2019-04-03 19:00:00 8.9 21 Oeste 40 Oeste 0 -- -- 42
2019-04-03 18:00:00 11 26 Oeste 43 Sudoeste 0 -- -- 41
2019-04-03 17:00:00 9.8 24 Oeste 41 Sudoeste 0 -- -- 46
2019-04-03 16:00:00 9.1 24 Sudoeste 49 Oeste 0 -- -- 50
2019-04-03 15:00:00 9.1 33 Oeste 46 Oeste 0 -- -- 56
2019-04-03 14:00:00 8.7 19 Oeste 34 Sudoeste 0 -- -- 64
2019-04-03 13:00:00 8 21 Sudoeste 34 Sudoeste 0 -- -- 66
2019-04-03 12:00:00 9.4 5 Oeste 26 Sudoeste 0 -- -- 67
2019-04-03 11:00:00 9.2 18 Sudoeste 27 Sudoeste 0 -- -- 69
2019-04-03 10:00:00 8.1 10 Sudoeste 17 Sudoeste 0 -- -- 77
2019-04-03 09:00:00 6 6 Oeste 12 Oeste 0 -- -- 87
2019-04-03 08:00:00 4.6 8 Sudoeste 12 Oeste 0 -- -- 87
2019-04-03 07:00:00 6.6 6 Oeste 16 Oeste 0 -- -- 83
2019-04-03 06:00:00 6.8 8 Sudoeste 17 Sudoeste 0 -- -- 83
2019-04-03 05:00:00 7.2 16 Sudoeste 22 Sudoeste 0 -- -- 85
2019-04-03 04:00:00 6.4 8 Sudoeste 21 Sudoeste 0 -- -- 88
2019-04-03 03:00:00 7.7 9 Sudoeste 27 Sudoeste 0 -- -- 86
2019-04-03 02:00:00 8 14 Sudoeste 25 Sudoeste 0 -- -- 85
2019-04-03 01:00:00 8.1 11 Oeste 29 Sudoeste 0.2 -- -- 84
2019-04-03 00:00:00 8.5 8 Oeste 19 Sur 0 -- -- 83
2019-04-02 23:00:00 8.5 3 Nordeste 10 Sudoeste 0 -- -- 87
2019-04-02 22:00:00 8.6 3 Norte 9 Sudeste 0 -- -- 84
2019-04-02 21:00:00 8.8 4 Sudeste 18 Oeste 0.4 -- -- 83
2019-04-02 20:00:00 9.7 16 Noroeste 31 Noroeste 2 -- -- 78
2019-04-02 19:00:00 14.6 9 Sur 24 Sudeste 0 -- -- 54
2019-04-02 18:00:00 16.1 10 Sur 26 Sudoeste 0 -- -- 46
2019-04-02 17:00:00 13.1 13 Sudoeste 37 Oeste 0 -- -- 59
2019-04-02 16:00:00 14.2 21 Sudoeste 37 Sudoeste 0 -- -- 50
2019-04-02 15:00:00 15.8 8 Sudoeste 20 Sudoeste 0 -- -- 48
2019-04-02 14:00:00 14.9 10 Sudoeste 20 Sur 0 -- -- 57
2019-04-02 13:00:00 13.3 7 Sudoeste 16 Sur 0 -- -- 68
2019-04-02 12:00:00 11.6 8 Sur 16 Sur 0 -- -- 73
2019-04-02 11:00:00 10.3 10 Sudoeste 18 Sudoeste 0 -- -- 81
2019-04-02 10:00:00 9.5 13 Sudoeste 19 Sudoeste 0 -- -- 86
2019-04-02 09:00:00 7 4 Sur 12 Sudoeste 0 -- -- 92
2019-04-02 08:00:00 5.9 10 Sudoeste 12 Sudoeste 0 -- -- 91
2019-04-02 07:00:00 6.4 9 Sudoeste 15 Sudoeste 0 -- -- 91
2019-04-02 06:00:00 7 8 Sudoeste 13 Oeste 0 -- -- 92
2019-04-02 05:00:00 7.2 5 Sudoeste 10 Sudoeste 0 -- -- 92
2019-04-02 04:00:00 7.8 0 Calma 3 Noroeste 0 -- -- 91
2019-04-02 03:00:00 8.1 2 Sur 8 Oeste 0.2 -- -- 91
2019-04-02 02:00:00 8.3 5 Oeste 12 Sur 0.8 -- -- 92
2019-04-02 01:00:00 8.8 5 Sudoeste 8 Oeste 0 -- -- 93
2019-04-02 00:00:00 9.1 0 Calma 11 Norte 0 -- -- 92
2019-04-01 23:00:00 9.4 3 Noroeste 8 Noroeste 0 -- -- 91
2019-04-01 22:00:00 9.7 0 Calma 10 Norte 0 -- -- 91
2019-04-01 21:00:00 9.9 5 Noroeste 14 Norte 0 -- -- 90
2019-04-01 20:00:00 10.6 7 Norte 17 Nordeste 0 -- -- 87
2019-04-01 19:00:00 10.8 10 Nordeste 19 Norte 0 -- -- 87
2019-04-01 18:00:00 10.7 8 Nordeste 17 Nordeste 10.2 -- -- 87
2019-04-01 17:00:00 12.8 5 Norte 15 Este 0 -- -- 74
2019-04-01 16:00:00 12.4 4 Nordeste 8 Este 0 -- -- 76
2019-04-01 15:00:00 11.4 5 Nordeste 12 Nordeste 0 -- -- 80
2019-04-01 14:00:00 10.2 3 Nordeste 6 Nordeste 0.2 -- -- 85
2019-04-01 13:00:00 9.5 0 Calma 9 Nordeste 0 -- -- 85
2019-04-01 12:00:00 8.3 3 Norte 7 Norte 0 -- -- 91
2019-04-01 11:00:00 6.9 2 Nordeste 7 Nordeste 0 -- -- 95
2019-04-01 10:00:00 6.3 2 Nordeste 5 Nordeste 0 -- -- 95
2019-04-01 09:00:00 6.1 3 Nordeste 5 Nordeste 0 -- -- 94
2019-04-01 08:00:00 5.9 3 Nordeste 6 Nordeste 0 -- -- 94
2019-04-01 07:00:00 5.8 3 Nordeste 6 Nordeste 0 -- -- 94
2019-04-01 06:00:00 5.7 0 Calma 6 Nordeste 0 -- -- 94
2019-04-01 05:00:00 5.7 3 Nordeste 9 Nordeste 0 -- -- 93
2019-04-01 04:00:00 5.7 5 Nordeste 8 Nordeste 0 -- -- 92
2019-04-01 03:00:00 5.7 5 Norte 11 Norte 0 -- -- 92
2019-04-01 02:00:00 5.7 5 Norte 11 Nordeste 0 -- -- 91
2019-04-01 01:00:00 5.8 6 Nordeste 11 Norte 0.2 -- -- 92
2019-04-01 00:00:00 5.9 6 Norte 13 Norte 0 -- -- 92
2019-03-31 23:00:00 5.9 6 Norte 16 Nordeste 0 -- -- 93
2019-03-31 22:00:00 5.9 5 Nordeste 14 Nordeste 0 -- -- 93
2019-03-31 21:00:00 5.8 8 Nordeste 19 Nordeste 0.2 -- -- 91
2019-03-31 20:00:00 6.3 8 Norte 19 Norte 0 -- -- 89
2019-03-31 19:00:00 7 10 Norte 17 Nordeste 1.2 -- -- 90
2019-03-31 18:00:00 7.4 10 Nordeste 22 Nordeste 2.2 -- -- 88
2019-03-31 17:00:00 8 15 Nordeste 23 Norte 0.8 -- -- 82
2019-03-31 16:00:00 9.3 10 Nordeste 23 Nordeste 0 -- -- 73
2019-03-31 15:00:00 8.9 9 Norte 16 Nordeste 0 -- -- 73
2019-03-31 14:00:00 9.3 7 Nordeste 14 Nordeste 0 -- -- 65
2019-03-31 13:00:00 9 7 Nordeste 14 Nordeste 0 -- -- 60
2019-03-31 12:00:00 8.1 5 Nordeste 17 Este 0 -- -- 63
2019-03-31 11:00:00 7.7 7 Nordeste 13 Nordeste 0 -- -- 65
2019-03-31 10:00:00 6.4 4 Nordeste 6 Nordeste 0 -- -- 68
2019-03-31 09:00:00 3.7 0 Calma 2 Norte 0 -- -- 73
2019-03-31 08:00:00 2.8 0 Calma 5 Sur 0 -- -- 72
2019-03-31 07:00:00 2.6 2 Sudoeste 4 Sudoeste 0 -- -- 72
2019-03-31 06:00:00 2.4 2 Sudoeste 5 Sudoeste 0 -- -- 71
2019-03-31 05:00:00 2.2 2 Sudoeste 6 Oeste 0 -- -- 69
2019-03-31 03:00:00 3.3 2 Sudoeste 5 Sur 0 -- -- 60
2019-03-31 01:00:00 4.7 3 Sudoeste 6 Sur 0 -- -- 56
2019-03-31 00:00:00 6.7 2 Oeste 5 Sur 0 -- -- 50
2019-03-30 23:00:00 9.3 3 Nordeste 9 Nordeste 0 -- -- 44
2019-03-30 22:00:00 9.8 7 Norte 10 Norte 0 -- -- 40
2019-03-30 21:00:00 11 6 Nordeste 14 Nordeste 0 -- -- 38
2019-03-30 20:00:00 12.5 10 Nordeste 23 Nordeste 0 -- -- 34
2019-03-30 19:00:00 14.4 14 Nordeste 29 Nordeste 0 -- -- 32
2019-03-30 18:00:00 15.9 17 Nordeste 27 Nordeste 0 -- -- 28
2019-03-30 17:00:00 16.6 11 Norte 27 Nordeste 0 -- -- 26
2019-03-30 16:00:00 17.3 8 Norte 25 Norte 0 -- -- 27
2019-03-30 15:00:00 16.5 11 Norte 25 Nordeste 0 -- -- 29
2019-03-30 14:00:00 15.5 11 Nordeste 25 Nordeste 0 -- -- 31
2019-03-30 13:00:00 14.3 10 Nordeste 21 Nordeste 0 -- -- 34
2019-03-30 12:00:00 12.9 10 Nordeste 18 Nordeste 0 -- -- 36
2019-03-30 11:00:00 11.7 9 Nordeste 16 Nordeste 0 -- -- 40
2019-03-30 10:00:00 9.7 5 Norte 9 Norte 0 -- -- 45
2019-03-30 09:00:00 6.3 2 Nordeste 10 Sudoeste 0 -- -- 57
2019-03-30 08:00:00 1.8 10 Oeste 15 Sudoeste 0 -- -- 70
2019-03-30 07:00:00 0.5 10 Sudoeste 15 Oeste 0 -- -- 72
2019-03-30 06:00:00 1.2 10 Sudoeste 13 Sudoeste 0 -- -- 70
2019-03-30 05:00:00 1.7 6 Sudoeste 13 Oeste 0 -- -- 68
2019-03-30 04:00:00 1.8 8 Sudoeste 10 Sudoeste 0 -- -- 66
2019-03-30 03:00:00 2.7 4 Oeste 10 Sudoeste 0 -- -- 63
2019-03-30 02:00:00 -- -- -- -- -- -- -- -- --
2019-03-30 01:00:00 6.9 15 Sudoeste 23 Sudoeste 0 -- -- 53
2019-03-30 00:00:00 7 8 Oeste 14 Sudoeste 0 -- -- 53
2019-03-29 23:00:00 7.4 9 Sudoeste 20 Sudoeste 0 -- -- 56
2019-03-29 22:00:00 9 6 Sudoeste 12 Norte 0 -- -- 52
2019-03-29 21:00:00 12 8 Norte 26 Nordeste 0 -- -- 45
2019-03-29 20:00:00 13.9 13 Nordeste 28 Nordeste 0 -- -- 38
2019-03-29 19:00:00 15.5 16 Nordeste 33 Nordeste 0 -- -- 33
2019-03-29 18:00:00 17.3 12 Nordeste 24 Nordeste 0 -- -- 27
2019-03-29 17:00:00 17.5 7 Nordeste 21 Nordeste 0 -- -- 24
2019-03-29 16:00:00 17.9 8 Nordeste 21 Noroeste 0 -- -- 24
2019-03-29 15:00:00 17.3 5 Nordeste 25 Este 0 -- -- 26
2019-03-29 14:00:00 16.8 8 Norte 20 Nordeste 0 -- -- 28
2019-03-29 13:00:00 15.3 6 Norte 18 Nordeste 0 -- -- 32
2019-03-29 12:00:00 14 11 Nordeste 18 Nordeste 0 -- -- 36
2019-03-29 11:00:00 12.4 9 Nordeste 15 Nordeste 0 -- -- 38
2019-03-29 10:00:00 10.1 6 Nordeste 11 Este 0 -- -- 41
2019-03-29 09:00:00 6.8 2 Nordeste 12 Sudoeste 0 -- -- 53
2019-03-29 08:00:00 2.3 6 Sudoeste 12 Sudoeste 0 -- -- 64
2019-03-29 07:00:00 0.7 11 Oeste 13 Sudoeste 0 -- -- 67
2019-03-29 06:00:00 1 9 Sudoeste 16 Sudoeste 0 -- -- 65
2019-03-29 05:00:00 1.9 9 Sudoeste 14 Sur 0 -- -- 65
2019-03-29 04:00:00 2.2 9 Sudoeste 15 Sudoeste 0 -- -- 65
2019-03-29 03:00:00 2.8 10 Sudoeste 15 Sudoeste 0 -- -- 64
2019-03-29 02:00:00 3.2 9 Sudoeste 14 Sudoeste 0 -- -- 62
2019-03-29 01:00:00 4.3 6 Sudoeste 17 Sudoeste 0 -- -- 60
2019-03-29 00:00:00 4.3 5 Sudoeste 15 Sudoeste 0 -- -- 61
2019-03-28 23:00:00 4.9 2 Sur 4 Sudoeste 0 -- -- 54
2019-03-28 22:00:00 6.7 2 Sudoeste 3 Sudoeste 0 -- -- 47
2019-03-28 21:00:00 11 3 Nordeste 14 Nordeste 0 -- -- 39
2019-03-28 20:00:00 13 6 Nordeste 20 Nordeste 0 -- -- 34
2019-03-28 19:00:00 15.4 13 Nordeste 23 Nordeste 0 -- -- 27
2019-03-28 18:00:00 16.9 11 Nordeste 18 Este 0 -- -- 20
2019-03-28 17:00:00 18 9 Nordeste 18 Norte 0 -- -- 23
2019-03-28 16:00:00 17.7 9 Nordeste 24 Nordeste 0 -- -- 22
2019-03-28 15:00:00 17.5 8 Nordeste 21 Norte 0 -- -- 24
2019-03-28 14:00:00 16.7 7 Este 23 Nordeste 0 -- -- 28
2019-03-28 13:00:00 14.8 6 Nordeste 15 Nordeste 0 -- -- 31
2019-03-28 12:00:00 13.6 2 Norte 13 Nordeste 0 -- -- 33
2019-03-28 11:00:00 11.4 5 Nordeste 12 Nordeste 0 -- -- 37
2019-03-28 10:00:00 9.6 4 Nordeste 10 Nordeste 0 -- -- 42
2019-03-28 09:00:00 5.3 3 Sudoeste 14 Sudoeste 0 -- -- 52
2019-03-28 08:00:00 0.6 12 Sudoeste 14 Sudoeste 0 -- -- 64
2019-03-28 07:00:00 -0.7 11 Sudoeste 17 Oeste 0 -- -- 66
2019-03-28 06:00:00 -0.6 12 Sudoeste 16 Sudoeste 0 -- -- 65
2019-03-28 05:00:00 -0.3 11 Sudoeste 15 Sudoeste 0 -- -- 63
2019-03-28 04:00:00 0.5 10 Sudoeste 16 Sudoeste 0 -- -- 57
2019-03-28 03:00:00 0.9 9 Sudoeste 16 Oeste 0 -- -- 54
2019-03-28 02:00:00 1.6 10 Sudoeste 15 Sudoeste 0 -- -- 50
2019-03-28 01:00:00 2.3 9 Sudoeste 13 Sudoeste 0 -- -- 46
2019-03-28 00:00:00 2.8 2 Sudoeste 8 Sudoeste 0 -- -- 44
2019-03-27 23:00:00 5.1 0 Calma 4 Norte 0 -- -- 40
2019-03-27 22:00:00 7.9 3 Nordeste 11 Nordeste 0 -- -- 33
2019-03-27 21:00:00 10.4 11 Norte 34 Noroeste 0 -- -- 29
2019-03-27 20:00:00 12.1 18 Noroeste 32 Noroeste 0 -- -- 26
2019-03-27 19:00:00 15.1 5 Nordeste 19 Nordeste 0 -- -- 24
2019-03-27 18:00:00 16.3 9 Nordeste 24 Nordeste 0 -- -- 24
2019-03-27 17:00:00 17.4 11 Nordeste 22 Este 0 -- -- 21
2019-03-27 16:00:00 17.3 12 Nordeste 23 Nordeste 0 -- -- 20
2019-03-27 15:00:00 17 8 Este 19 Nordeste 0 -- -- 21
2019-03-27 14:00:00 15.8 6 Este 28 Nordeste 0 -- -- 24
2019-03-27 13:00:00 14.4 10 Nordeste 21 Este 0 -- -- 28
2019-03-27 12:00:00 12.7 6 Este 15 Este 0 -- -- 31
2019-03-27 11:00:00 11 3 Nordeste 8 Este 0 -- -- 33
2019-03-27 10:00:00 8.3 2 Nordeste 5 Nordeste 0 -- -- 39
2019-03-27 09:00:00 3.8 0 Calma 12 Sudoeste 0 -- -- 49
2019-03-27 08:00:00 -0.7 9 Sudoeste 15 Sudoeste 0 -- -- 62
2019-03-27 07:00:00 -2.5 9 Sudoeste 17 Sudoeste 0 -- -- 63
2019-03-27 06:00:00 -1.9 12 Sudoeste 17 Sudoeste 0 -- -- 61
2019-03-27 05:00:00 -1.5 12 Sudoeste 16 Sudoeste 0 -- -- 58
2019-03-27 04:00:00 -0.8 13 Sudoeste 16 Sudoeste 0 -- -- 56
2019-03-27 03:00:00 -0.7 8 Sudoeste 13 Sudoeste 0 -- -- 54
2019-03-27 02:00:00 0.3 6 Sudoeste 10 Oeste 0 -- -- 51
2019-03-27 01:00:00 0.9 10 Sudoeste 15 Sudoeste 0 -- -- 48
2019-03-27 00:00:00 2.1 6 Sudoeste 9 Sudoeste 0 -- -- 44
2019-03-26 23:00:00 5.8 3 Sudeste 13 Este 0 -- -- 37
2019-03-26 22:00:00 7.2 4 Este 20 Nordeste 0 -- -- 35
2019-03-26 21:00:00 8.2 9 Noroeste 33 Noroeste 0 -- -- 32
2019-03-26 20:00:00 10.8 17 Noroeste 37 Norte 0 -- -- 25
2019-03-26 19:00:00 14.6 7 Nordeste 23 Nordeste 0 -- -- 21
2019-03-26 18:00:00 15.6 15 Nordeste 31 Nordeste 0 -- -- 21
2019-03-26 17:00:00 16.7 12 Nordeste 32 Nordeste 0 -- -- 22
2019-03-26 16:00:00 16.6 16 Nordeste 31 Nordeste 0 -- -- 22
2019-03-26 15:00:00 15.7 12 Nordeste 28 Nordeste 0 -- -- 27
2019-03-26 14:00:00 14.4 11 Nordeste 27 Nordeste 0 -- -- 34
2019-03-26 13:00:00 12.4 15 Nordeste 29 Norte 0 -- -- 39
2019-03-26 12:00:00 11.5 14 Norte 24 Nordeste 0 -- -- 42
2019-03-26 11:00:00 9.9 8 Nordeste 18 Nordeste 0 -- -- 50
2019-03-26 10:00:00 8.2 6 Nordeste 13 Nordeste 0 -- -- 53
2019-03-26 09:00:00 6.1 3 Nordeste 6 Nordeste 0 -- -- 60
2019-03-26 08:00:00 1.3 0 Calma 4 Sudoeste 0 -- -- 81
2019-03-26 07:00:00 0 0 Calma 5 Oeste 0 -- -- 80
2019-03-26 06:00:00 0.8 0 Calma 5 Norte 0 -- -- 76
2019-03-26 05:00:00 3 4 Nordeste 17 Noroeste 0 -- -- 72
2019-03-26 04:00:00 3.4 7 Noroeste 25 Norte 0 -- -- 73
2019-03-26 03:00:00 3.8 12 Noroeste 25 Noroeste 0 -- -- 72
2019-03-26 02:00:00 4 13 Noroeste 28 Noroeste 0 -- -- 71
2019-03-26 01:00:00 4.4 12 Noroeste 34 Noroeste 0 -- -- 67
2019-03-26 00:00:00 4.9 13 Noroeste 28 Noroeste 0 -- -- 65
2019-03-25 23:00:00 5.4 12 Noroeste 23 Noroeste 0 -- -- 59
2019-03-25 22:00:00 6.5 9 Noroeste 33 Norte 0 -- -- 53
2019-03-25 21:00:00 8.5 19 Norte 32 Norte 0 -- -- 45
2019-03-25 20:00:00 10 10 Norte 24 Noroeste 0 -- -- 41
2019-03-25 19:00:00 12.1 13 Norte 28 Noroeste 0 -- -- 37
2019-03-25 18:00:00 14.3 14 Noroeste 27 Norte 0 -- -- 26
2019-03-25 17:00:00 16.5 13 Norte 27 Norte 0 -- -- 22
2019-03-25 16:00:00 16.8 14 Norte 30 Norte 0 -- -- 28
2019-03-25 15:00:00 16.4 17 Norte 31 Norte 0 -- -- 26
2019-03-25 14:00:00 15.9 13 Norte 31 Norte 0 -- -- 32
2019-03-25 13:00:00 14.8 12 Norte 26 Norte 0 -- -- 35
2019-03-25 12:00:00 14.4 10 Norte 24 Noroeste 0 -- -- 40
2019-03-25 11:00:00 13.4 10 Noroeste 25 Norte 0 -- -- 42
2019-03-25 10:00:00 11.6 13 Norte 26 Noroeste 0 -- -- 47
2019-03-25 09:00:00 9.7 11 Norte 23 Noroeste 0 -- -- 53
2019-03-25 08:00:00 4.5 4 Sur 9 Oeste 0 -- -- 67
2019-03-25 07:00:00 3 3 Sur 14 Oeste 0 -- -- 70
2019-03-25 06:00:00 3.5 12 Sudoeste 18 Sudoeste 0 -- -- 68
2019-03-25 05:00:00 3.4 11 Sudoeste 22 Sudoeste 0 -- -- 66
2019-03-25 04:00:00 4 12 Sudoeste 18 Sudoeste 0 -- -- 64
2019-03-25 03:00:00 4.6 14 Oeste 17 Oeste 0 -- -- 63
2019-03-25 02:00:00 5.1 4 Sudoeste 7 Sudoeste 0 -- -- 60
2019-03-25 01:00:00 6.1 0 Calma 3 Este 0 -- -- 56
2019-03-25 00:00:00 6.6 0 Calma 5 Sudoeste 0 -- -- 52
2019-03-24 23:00:00 8.1 0 Calma 5 Sudoeste 0 -- -- 47
2019-03-24 22:00:00 9 3 Sudoeste 6 Noroeste 0 -- -- 43
2019-03-24 21:00:00 10.2 4 Oeste 8 Noroeste 0 -- -- 39
2019-03-24 20:00:00 14.5 0 Calma 12 Norte 0 -- -- 31
2019-03-24 19:00:00 17.7 4 Nordeste 18 Nordeste 0 -- -- 25
2019-03-24 18:00:00 18.8 8 Nordeste 24 Nordeste 0 -- -- 22
2019-03-24 17:00:00 19.6 11 Nordeste 26 Nordeste 0 -- -- 22
2019-03-24 16:00:00 19.8 11 Nordeste 29 Norte 0 -- -- 22
2019-03-24 15:00:00 19.8 15 Nordeste 30 Nordeste 0 -- -- 23
2019-03-24 14:00:00 18.9 15 Norte 30 Norte 0 -- -- 26
2019-03-24 13:00:00 18.4 10 Nordeste 21 Nordeste 0 -- -- 26
2019-03-24 12:00:00 17.4 12 Nordeste 20 Nordeste 0 -- -- 26
2019-03-24 11:00:00 15.1 5 Nordeste 9 Nordeste 0 -- -- 37
2019-03-24 10:00:00 11.5 2 Sur 5 Sur 0 -- -- 48
2019-03-24 09:00:00 6.3 4 Sur 11 Sudoeste 0 -- -- 61
2019-03-24 08:00:00 2.5 9 Sudoeste 14 Sudoeste 0 -- -- 73
2019-03-24 07:00:00 0.5 12 Sudoeste 15 Sudoeste 0 -- -- 74
2019-03-24 06:00:00 1.7 12 Sudoeste 21 Sudoeste 0 -- -- 71
2019-03-24 05:00:00 2.6 14 Sudoeste 15 Sudoeste 0 -- -- 70
2019-03-24 04:00:00 3.2 10 Sudoeste 14 Sudoeste 0 -- -- 69
2019-03-24 03:00:00 3.9 10 Sudoeste 12 Sudoeste 0 -- -- 65
2019-03-24 02:00:00 4.7 6 Sudoeste 15 Sudoeste 0 -- -- 63
2019-03-24 01:00:00 5.3 9 Sudoeste 13 Sudoeste 0 -- -- 60
2019-03-24 00:00:00 6 8 Sudoeste 13 Sur 0 -- -- 59
2019-03-23 23:00:00 6.1 3 Sudoeste 11 Sudoeste 0 -- -- 56
2019-03-23 22:00:00 7.4 3 Sudoeste 6 Sudoeste 0 -- -- 53
2019-03-23 21:00:00 10 2 Sur 5 Sudoeste 0 -- -- 45
2019-03-23 20:00:00 14.4 4 Nordeste 23 Norte 0 -- -- 37
2019-03-23 19:00:00 16.1 13 Nordeste 30 Nordeste 0 -- -- 34
2019-03-23 18:00:00 17.4 20 Nordeste 37 Nordeste 0 -- -- 32
2019-03-23 17:00:00 18.5 19 Nordeste 33 Nordeste 0 -- -- 30
2019-03-23 16:00:00 18.8 18 Nordeste 34 Nordeste 0 -- -- 29
2019-03-23 15:00:00 18.8 13 Nordeste 36 Nordeste 0 -- -- 31
2019-03-23 14:00:00 17.7 16 Nordeste 32 Nordeste 0 -- -- 32
2019-03-23 13:00:00 16.8 13 Nordeste 24 Nordeste 0 -- -- 35
2019-03-23 12:00:00 15.4 9 Nordeste 19 Nordeste 0 -- -- 40
2019-03-23 11:00:00 14.1 6 Nordeste 10 Nordeste 0 -- -- 44
2019-03-23 10:00:00 11.3 3 Nordeste 6 Nordeste 0 -- -- 50
2019-03-23 09:00:00 6.2 4 Sur 14 Sudoeste 0 -- -- 65
2019-03-23 08:00:00 2.4 12 Sudoeste 16 Sudoeste 0 -- -- 75
2019-03-23 07:00:00 1.1 12 Sudoeste 15 Sudoeste 0 -- -- 78
2019-03-23 06:00:00 1.6 11 Sudoeste 16 Sudoeste 0 -- -- 75
2019-03-23 05:00:00 2 10 Sudoeste 15 Sudoeste 0 -- -- 73
2019-03-23 04:00:00 3.1 12 Oeste 15 Sudoeste 0 -- -- 71
2019-03-23 03:00:00 3.3 12 Sudoeste 15 Sudoeste 0 -- -- 70
2019-03-23 02:00:00 3.7 10 Sudoeste 14 Sudoeste 0 -- -- 68
2019-03-23 01:00:00 4.1 9 Sudoeste 14 Sudoeste 0 -- -- 65
2019-03-23 00:00:00 4.6 9 Sudoeste 15 Sudoeste 0 -- -- 63
2019-03-22 23:00:00 4.8 7 Sudoeste 12 Sudoeste 0 -- -- 61
2019-03-22 22:00:00 6.2 0 Calma 4 Sudoeste 0 -- -- 55
2019-03-22 21:00:00 8.7 0 Calma 7 Nordeste 0 -- -- 49
2019-03-22 20:00:00 12.4 6 Norte 22 Norte 0 -- -- 41
2019-03-22 19:00:00 14.3 11 Norte 28 Nordeste 0 -- -- 36
2019-03-22 18:00:00 15.5 14 Nordeste 25 Nordeste 0 -- -- 33
2019-03-22 17:00:00 16.2 15 Nordeste 28 Nordeste 0 -- -- 31
2019-03-22 16:00:00 16.2 15 Nordeste 31 Norte 0 -- -- 31
2019-03-22 15:00:00 15.8 12 Nordeste 28 Nordeste 0 -- -- 32
2019-03-22 14:00:00 14.5 7 Nordeste 26 Nordeste 0 -- -- 33
2019-03-22 13:00:00 13.3 10 Nordeste 20 Nordeste 0 -- -- 35
2019-03-22 12:00:00 12.5 10 Nordeste 19 Nordeste 0 -- -- 33
2019-03-22 11:00:00 10.3 9 Nordeste 14 Nordeste 0 -- -- 39
2019-03-22 10:00:00 7.9 5 Nordeste 10 Nordeste 0 -- -- 44
2019-03-22 09:00:00 3.9 7 Sudoeste 13 Sudoeste 0 -- -- 57
2019-03-22 08:00:00 -0.3 8 Sudoeste 14 Sudoeste 0 -- -- 67
2019-03-22 07:00:00 -1.5 11 Sudoeste 15 Sudoeste 0 -- -- 67
2019-03-22 06:00:00 -1.5 8 Sudoeste 12 Sudoeste 0 -- -- 66
2019-03-22 05:00:00 -0.6 11 Oeste 16 Sudoeste 0 -- -- 64
2019-03-22 04:00:00 0.4 11 Sudoeste 15 Sudoeste 0 -- -- 61
2019-03-22 03:00:00 0.5 8 Sudoeste 15 Sudoeste 0 -- -- 60
2019-03-22 02:00:00 0.8 6 Sudoeste 14 Sur 0 -- -- 59
2019-03-22 01:00:00 1.4 10 Sudoeste 14 Sudoeste 0 -- -- 59
2019-03-22 00:00:00 1.1 7 Sudoeste 12 Sudoeste 0 -- -- 58
2019-03-21 23:00:00 1.7 4 Sudoeste 6 Sudoeste 0 -- -- 56
2019-03-21 22:00:00 3.9 0 Calma 3 Nordeste 0 -- -- 49
2019-03-21 21:00:00 7.4 0 Calma 13 Nordeste 0 -- -- 41
2019-03-21 20:00:00 9.6 8 Nordeste 18 Norte 0 -- -- 37
2019-03-21 19:00:00 11.4 9 Norte 23 Nordeste 0 -- -- 29
2019-03-21 18:00:00 12.4 9 Norte 21 Norte 0 -- -- 27
2019-03-21 17:00:00 13.4 10 Norte 19 Nordeste 0 -- -- 25
2019-03-21 16:00:00 13.8 9 Nordeste 17 Nordeste 0 -- -- 22
2019-03-21 15:00:00 13.5 8 Nordeste 17 Nordeste 0 -- -- 26
2019-03-21 14:00:00 13.1 3 Oeste 15 Nordeste 0 -- -- 29
2019-03-21 13:00:00 11.5 7 Nordeste 15 Nordeste 0 -- -- 37
2019-03-21 12:00:00 9.9 8 Nordeste 15 Este 0 -- -- 41
2019-03-21 11:00:00 8.2 5 Este 13 Nordeste 0 -- -- 50
2019-03-21 10:00:00 6.2 6 Nordeste 12 Norte 0 -- -- 56
2019-03-21 09:00:00 2.2 7 Oeste 15 Sudoeste 0 -- -- 68
2019-03-21 08:00:00 -1.8 10 Oeste 15 Sudoeste 0 -- -- 79
2019-03-21 07:00:00 -2.4 12 Sudoeste 16 Sudoeste 0 -- -- 76
2019-03-21 06:00:00 -2.1 10 Sudoeste 16 Oeste 0 -- -- 77
2019-03-21 05:00:00 -2.2 12 Sudoeste 14 Sudoeste 0 -- -- 77
2019-03-21 04:00:00 -1.7 10 Sudoeste 14 Sudoeste 0 -- -- 75
2019-03-21 03:00:00 -1.2 8 Oeste 12 Oeste 0 -- -- 75
2019-03-21 02:00:00 -0.7 4 Sudoeste 12 Sudoeste 0 -- -- 70
2019-03-21 01:00:00 0.2 10 Sudoeste 13 Oeste 0 -- -- 68
2019-03-21 00:00:00 3 0 Calma 17 Noroeste 0 -- -- 59
2019-03-20 23:00:00 4.3 9 Noroeste 20 Norte 0 -- -- 56
2019-03-20 22:00:00 5.2 5 Nordeste 21 Noroeste 0 -- -- 50
2019-03-20 21:00:00 6.1 13 Noroeste 35 Norte 0 -- -- 44
2019-03-20 20:00:00 8.1 21 Noroeste 35 Noroeste 0 -- -- 36
2019-03-20 19:00:00 10.2 15 Noroeste 25 Noroeste 0 -- -- 34
2019-03-20 18:00:00 12 7 Nordeste 17 Nordeste 0 -- -- 34
2019-03-20 17:00:00 12.6 11 Este 21 Este 0 -- -- 32
2019-03-20 16:00:00 12.8 11 Nordeste 27 Nordeste 0 -- -- 33
2019-03-20 15:00:00 12.2 11 Nordeste 23 Nordeste 0 -- -- 34
2019-03-20 14:00:00 11.6 10 Norte 20 Este 0 -- -- 39
2019-03-20 13:00:00 10.5 10 Norte 28 Noroeste 0 -- -- 37
2019-03-20 12:00:00 9.6 10 Noroeste 27 Noroeste 0 -- -- 42
2019-03-20 11:00:00 8.1 14 Norte 30 Noroeste 0 -- -- 46
2019-03-20 10:00:00 6.9 12 Norte 25 Norte 0 -- -- 51
2019-03-20 09:00:00 2.9 0 Calma 5 Sudoeste 0 -- -- 73
2019-03-20 08:00:00 -1.2 3 Sudoeste 6 Sudoeste 0 -- -- 81
2019-03-20 07:00:00 -2.1 4 Sudoeste 9 Sudoeste 0 -- -- 80
2019-03-20 06:00:00 -0.6 2 Sudoeste 8 Sur 0 -- -- 75
2019-03-20 05:00:00 1.4 3 Norte 13 Norte 0 -- -- 70
2019-03-20 04:00:00 2.2 4 Noroeste 23 Norte 0 -- -- 68
2019-03-20 03:00:00 3.2 13 Norte 28 Noroeste 0 -- -- 66
2019-03-20 02:00:00 3.2 8 Norte 28 Norte 0 -- -- 66
2019-03-20 01:00:00 3.6 13 Norte 31 Noroeste 0 -- -- 65
2019-03-20 00:00:00 4 9 Noroeste 20 Noroeste 0 -- -- 63
2019-03-19 23:00:00 4.4 9 Noroeste 20 Norte 0 -- -- 62
2019-03-19 22:00:00 5.1 7 Norte 26 Norte 0 -- -- 60
2019-03-19 21:00:00 5.3 7 Norte 32 Noroeste 0 -- -- 60
2019-03-19 20:00:00 6.1 15 Norte 29 Noroeste 0 -- -- 55
2019-03-19 19:00:00 7.7 16 Noroeste 40 Oeste 0 -- -- 53
2019-03-19 18:00:00 9.2 19 Noroeste 42 Norte 0 -- -- 48
2019-03-19 17:00:00 10.4 19 Noroeste 42 Noroeste 0 -- -- 45
2019-03-19 16:00:00 10.9 21 Noroeste 45 Noroeste 0 -- -- 50
2019-03-19 15:00:00 11.5 19 Norte 40 Noroeste 0 -- -- 49
2019-03-19 14:00:00 11.5 16 Norte 39 Oeste 0 -- -- 42
2019-03-19 13:00:00 9.9 17 Norte 38 Noroeste 0 -- -- 51
2019-03-19 12:00:00 8.8 18 Oeste 38 Noroeste 0 -- -- 59
2019-03-19 11:00:00 8.7 19 Noroeste 33 Oeste 0 -- -- 58
2019-03-19 10:00:00 7.8 15 Noroeste 31 Noroeste 0 -- -- 59
2019-03-19 09:00:00 5.9 4 Noroeste 11 Noroeste 0 -- -- 64
2019-03-19 08:00:00 3.7 2 Norte 13 Noroeste 0 -- -- 70
2019-03-19 07:00:00 2.8 4 Noroeste 11 Oeste 0 -- -- 73
2019-03-19 06:00:00 3.8 3 Oeste 7 Noroeste 0 -- -- 72
2019-03-19 05:00:00 3.8 0 Calma 5 Norte 0 -- -- 72
2019-03-19 04:00:00 4.2 3 Nordeste 21 Noroeste 0 -- -- 71
2019-03-19 03:00:00 4.3 3 Norte 15 Norte 0 -- -- 65
2019-03-19 02:00:00 4.1 3 Este 9 Norte 0 -- -- 63
2019-03-19 01:00:00 3.4 0 Calma 8 Noroeste 0 -- -- 63
2019-03-19 00:00:00 4.3 0 Calma 8 Norte 0 -- -- 62